createdAt,value
2017-05-18T00:02:03.382Z,3.64
2017-05-18T00:04:30.702Z,4.56
2017-05-18T00:06:58.004Z,3.50
2017-05-18T00:09:25.343Z,4.14
2017-05-18T00:11:52.665Z,4.40
2017-05-18T00:14:19.989Z,4.46
2017-05-18T00:16:47.256Z,3.82
2017-05-18T00:19:14.618Z,3.74
2017-05-18T00:21:41.971Z,4.06
2017-05-18T00:24:09.389Z,3.34
2017-05-18T00:26:36.732Z,3.20
2017-05-18T00:29:04.106Z,3.86
2017-05-18T00:31:31.422Z,4.12
2017-05-18T00:33:58.750Z,3.56
2017-05-18T00:36:26.113Z,3.62
2017-05-18T00:38:53.445Z,3.40
2017-05-18T00:41:20.783Z,3.92
2017-05-18T00:43:48.107Z,2.84
2017-05-18T00:46:15.446Z,3.80
2017-05-18T00:48:42.773Z,3.70
2017-05-18T00:51:10.190Z,3.62
2017-05-18T00:53:37.533Z,4.58
2017-05-18T00:56:04.947Z,3.90
2017-05-18T00:58:32.341Z,3.12
2017-05-18T01:00:59.686Z,3.38
2017-05-18T01:03:26.994Z,2.90
2017-05-18T01:05:54.338Z,3.72
2017-05-18T01:08:21.666Z,3.34
2017-05-18T01:10:48.989Z,2.90
2017-05-18T01:13:17.822Z,4.18
2017-05-18T01:15:45.174Z,3.34
2017-05-18T01:18:12.546Z,3.48
2017-05-18T01:20:39.875Z,3.92
2017-05-18T01:23:07.250Z,3.28
2017-05-18T01:25:35.061Z,5.42
2017-05-18T01:28:02.365Z,2.52
2017-05-18T01:30:29.704Z,2.98
2017-05-18T01:32:57.068Z,2.76
2017-05-18T01:35:24.450Z,3.22
2017-05-18T01:37:51.830Z,2.92
2017-05-18T01:40:19.554Z,3.42
2017-05-18T01:42:46.930Z,3.32
2017-05-18T01:45:14.316Z,3.10
2017-05-18T01:47:41.670Z,3.50
2017-05-18T01:50:09.047Z,3.74
2017-05-18T01:52:38.094Z,3.54
2017-05-18T01:55:05.461Z,2.98
2017-05-18T01:57:32.783Z,3.00
2017-05-18T02:00:00.110Z,3.44
2017-05-18T02:02:27.438Z,3.20
2017-05-18T02:04:54.763Z,3.00
2017-05-18T02:07:22.130Z,3.92
2017-05-18T02:09:49.482Z,3.22
2017-05-18T02:12:16.744Z,3.00
2017-05-18T02:14:44.082Z,3.20
2017-05-18T02:17:11.475Z,2.80
2017-05-18T02:19:38.832Z,2.96
2017-05-18T02:22:06.335Z,3.40
2017-05-18T02:24:33.697Z,3.66
2017-05-18T02:27:01.093Z,3.60
2017-05-18T02:29:28.410Z,3.12
2017-05-18T02:31:55.737Z,3.16
2017-05-18T02:34:23.064Z,3.72
2017-05-18T02:36:50.411Z,3.70
2017-05-18T02:39:17.753Z,5.36
2017-05-18T02:41:45.114Z,3.34
2017-05-18T02:44:12.474Z,3.94
2017-05-18T02:46:39.811Z,3.86
2017-05-18T02:49:07.145Z,3.38
2017-05-18T02:51:35.005Z,3.40
2017-05-18T02:54:02.361Z,3.80
2017-05-18T02:56:29.709Z,3.42
2017-05-18T02:58:57.057Z,4.00
2017-05-18T03:01:24.389Z,4.18
2017-05-18T03:03:51.711Z,3.80
2017-05-18T03:06:19.054Z,5.26
2017-05-18T03:08:46.314Z,3.60
2017-05-18T03:11:14.069Z,4.12
2017-05-18T03:13:41.441Z,3.98
2017-05-18T03:16:08.998Z,4.78
2017-05-18T03:18:36.365Z,3.50
2017-05-18T03:21:03.729Z,4.88
2017-05-18T03:23:31.474Z,4.42
2017-05-18T03:25:58.837Z,4.04
2017-05-18T03:28:26.197Z,4.38
2017-05-18T03:30:53.502Z,3.76
2017-05-18T03:33:20.817Z,4.20
2017-05-18T03:35:48.177Z,4.52
2017-05-18T03:38:15.529Z,5.60
2017-05-18T03:40:42.870Z,3.70
2017-05-18T03:43:10.245Z,4.10
2017-05-18T03:45:37.606Z,4.10
2017-05-18T03:48:04.975Z,4.14
2017-05-18T03:50:32.304Z,5.36
2017-05-18T03:52:59.680Z,4.48
2017-05-18T03:55:27.024Z,4.74
2017-05-18T03:57:54.406Z,3.96
2017-05-18T04:00:21.757Z,4.36
2017-05-18T04:02:49.117Z,3.88
2017-05-18T04:05:17.098Z,6.58
2017-05-18T04:07:44.787Z,4.06
2017-05-18T04:10:12.158Z,3.92
2017-05-18T04:12:39.473Z,5.98
2017-05-18T04:15:06.822Z,3.50
2017-05-18T04:17:34.187Z,3.50
2017-05-18T04:20:01.933Z,4.08
2017-05-18T04:22:29.260Z,5.44
2017-05-18T04:24:56.583Z,3.98
2017-05-18T04:27:23.899Z,6.44
2017-05-18T04:29:51.242Z,3.62
2017-05-18T04:32:18.613Z,6.82
2017-05-18T04:34:45.935Z,3.54
2017-05-18T04:37:13.295Z,5.74
2017-05-18T04:39:43.563Z,4.96
2017-05-18T04:42:10.915Z,5.04
2017-05-18T04:44:38.257Z,4.00
2017-05-18T04:47:05.663Z,4.24
2017-05-18T04:49:32.986Z,4.30
2017-05-18T04:52:00.342Z,3.48
2017-05-18T04:54:27.674Z,4.14
2017-05-18T04:56:55.017Z,3.96
2017-05-18T04:59:22.375Z,3.82
2017-05-18T05:01:49.710Z,4.44
2017-05-18T05:04:17.547Z,4.02
2017-05-18T05:06:45.013Z,4.32
2017-05-18T05:09:12.365Z,3.58
2017-05-18T05:11:40.270Z,3.28
2017-05-18T05:14:07.621Z,3.62
2017-05-18T05:16:34.958Z,4.80
2017-05-18T05:19:02.295Z,3.02
2017-05-18T05:21:29.653Z,3.44
2017-05-18T05:23:57.645Z,4.60
2017-05-18T05:26:25.061Z,3.12
2017-05-18T05:28:52.422Z,2.82
2017-05-18T05:31:19.806Z,3.12
2017-05-18T05:33:47.146Z,3.60
2017-05-18T05:36:14.465Z,5.20
2017-05-18T05:38:41.832Z,4.62
2017-05-18T05:41:09.213Z,3.86
2017-05-18T05:43:36.597Z,3.20
2017-05-18T05:46:04.117Z,3.42
2017-05-18T05:48:31.912Z,2.80
2017-05-18T05:50:59.233Z,3.18
2017-05-18T05:53:26.568Z,4.28
2017-05-18T05:55:53.933Z,4.36
2017-05-18T05:58:21.270Z,3.16
2017-05-18T06:00:48.532Z,3.24
2017-05-18T06:03:15.877Z,4.04
2017-05-18T06:05:43.213Z,4.92
2017-05-18T06:08:10.549Z,3.40
2017-05-18T06:10:37.878Z,4.02
2017-05-18T06:13:05.470Z,4.26
2017-05-18T06:15:32.921Z,6.04
2017-05-18T06:18:00.286Z,3.84
2017-05-18T06:20:27.565Z,4.04
2017-05-18T06:22:54.959Z,7.06
2017-05-18T06:25:22.281Z,3.88
2017-05-18T06:27:49.738Z,4.08
2017-05-18T06:30:17.249Z,3.54
2017-05-18T06:32:44.625Z,5.48
2017-05-18T06:35:12.121Z,7.24
2017-05-18T06:37:39.454Z,4.52
2017-05-18T06:40:06.885Z,5.32
2017-05-18T06:42:34.235Z,5.52
2017-05-18T06:45:01.610Z,4.44
2017-05-18T06:47:28.865Z,4.10
2017-05-18T06:49:56.229Z,4.38
2017-05-18T06:52:23.572Z,5.14
2017-05-18T06:54:50.882Z,5.36
2017-05-18T06:57:18.230Z,4.82
2017-05-18T06:59:45.566Z,8.00
2017-05-18T07:02:12.993Z,4.92
2017-05-18T07:04:40.358Z,5.30
2017-05-18T07:07:07.717Z,5.68
2017-05-18T07:09:35.073Z,5.52
2017-05-18T07:12:03.226Z,5.22
2017-05-18T07:14:30.541Z,5.78
2017-05-18T07:16:57.883Z,5.50
2017-05-18T07:19:25.250Z,5.54
2017-05-18T07:21:52.581Z,5.84
2017-05-18T07:24:19.938Z,5.16
2017-05-18T07:26:47.249Z,9.58
2017-05-18T07:29:14.606Z,7.76
2017-05-18T07:31:41.893Z,5.80
2017-05-18T07:34:09.311Z,5.32
2017-05-18T07:36:36.634Z,5.60
2017-05-18T07:39:03.957Z,5.38
2017-05-18T07:41:31.281Z,6.40
2017-05-18T07:43:58.623Z,6.02
2017-05-18T07:46:25.973Z,5.70
2017-05-18T07:48:53.349Z,5.30
2017-05-18T07:51:20.714Z,6.42
2017-05-18T07:53:48.064Z,5.98
2017-05-18T07:56:15.429Z,6.46
2017-05-18T07:58:42.745Z,5.92
2017-05-18T08:01:10.143Z,6.28
2017-05-18T08:03:37.485Z,6.22
2017-05-18T08:06:04.856Z,6.40
2017-05-18T08:08:32.264Z,5.72
2017-05-18T08:10:59.926Z,6.22
2017-05-18T08:13:27.248Z,6.30
2017-05-18T08:15:54.573Z,6.74
2017-05-18T08:18:21.946Z,9.28
2017-05-18T08:20:49.284Z,8.08
2017-05-18T08:23:16.637Z,8.40
2017-05-18T08:25:44.351Z,8.58
2017-05-18T08:28:11.722Z,6.96
2017-05-18T08:30:39.069Z,8.16
2017-05-18T08:33:06.468Z,10.32
2017-05-18T08:35:38.713Z,7.78
2017-05-18T08:38:06.267Z,7.22
2017-05-18T08:40:33.666Z,7.62
2017-05-18T08:43:01.021Z,7.32
2017-05-18T08:45:28.377Z,7.80
2017-05-18T08:47:56.779Z,8.74
2017-05-18T08:50:24.078Z,8.38
2017-05-18T08:52:51.426Z,9.52
2017-05-18T08:55:18.794Z,9.58
2017-05-18T08:57:46.136Z,9.78
2017-05-18T09:00:17.836Z,8.44
2017-05-18T09:02:45.234Z,9.50
2017-05-18T09:05:12.589Z,8.66
2017-05-18T09:07:39.967Z,8.60
2017-05-18T09:10:07.314Z,8.22
2017-05-18T09:12:39.662Z,7.32
2017-05-18T09:15:07.071Z,6.24
2017-05-18T09:17:34.401Z,7.00
2017-05-18T09:20:01.741Z,6.16
2017-05-18T09:22:29.082Z,7.06
2017-05-18T09:24:56.441Z,5.76
2017-05-18T09:27:23.797Z,6.16
2017-05-18T09:29:56.576Z,5.80
2017-05-18T09:32:24.097Z,5.76
2017-05-18T09:34:51.439Z,6.02
2017-05-18T09:37:18.774Z,5.92
2017-05-18T09:39:46.113Z,4.76
2017-05-18T09:42:13.478Z,5.80
2017-05-18T09:44:45.469Z,6.38
2017-05-18T09:47:12.889Z,6.24
2017-05-18T09:49:40.233Z,6.68
2017-05-18T09:52:07.560Z,6.64
2017-05-18T09:54:34.882Z,6.80
2017-05-18T09:57:02.203Z,7.04
2017-05-18T09:59:29.559Z,6.32
2017-05-18T10:02:00.724Z,6.96
2017-05-18T10:04:28.074Z,8.16
2017-05-18T10:06:55.401Z,6.76
2017-05-18T10:09:22.723Z,6.30
2017-05-18T10:11:50.041Z,9.12
2017-05-18T10:14:17.391Z,15.50
2017-05-18T10:16:49.816Z,21.28
2017-05-18T10:19:17.182Z,24.98
2017-05-18T10:21:44.513Z,26.24
2017-05-18T10:24:11.748Z,24.98
2017-05-18T10:26:39.106Z,28.22
2017-05-18T10:29:06.508Z,26.84
2017-05-18T10:31:37.149Z,30.76
2017-05-18T10:34:04.534Z,33.94
2017-05-18T10:36:31.834Z,32.24
2017-05-18T10:38:59.173Z,31.52
2017-05-18T10:41:26.469Z,27.84
2017-05-18T10:43:53.830Z,27.72
2017-05-18T10:46:25.470Z,27.68
2017-05-18T10:48:52.924Z,28.06
2017-05-18T10:51:20.225Z,27.30
2017-05-18T10:53:47.590Z,29.10
2017-05-18T10:56:14.954Z,34.34
2017-05-18T10:58:42.289Z,33.74
2017-05-18T11:01:12.725Z,35.96
2017-05-18T11:03:40.082Z,35.92
2017-05-18T11:06:07.470Z,35.56
2017-05-18T11:08:34.862Z,35.70
2017-05-18T11:11:02.231Z,36.22
2017-05-18T11:13:31.699Z,39.48
2017-05-18T11:16:01.717Z,38.62
2017-05-18T11:18:29.046Z,41.42
2017-05-18T11:20:56.402Z,39.96
2017-05-18T11:23:23.752Z,38.02
2017-05-18T11:25:51.100Z,40.10
2017-05-18T11:28:18.438Z,41.68
2017-05-18T11:30:45.815Z,39.84
2017-05-18T11:33:13.143Z,40.24
2017-05-18T11:35:40.505Z,38.38
2017-05-18T11:38:07.889Z,38.20
2017-05-18T11:40:35.228Z,36.96
2017-05-18T11:43:02.578Z,36.96
2017-05-18T11:45:29.902Z,37.42
2017-05-18T11:47:57.222Z,36.24
2017-05-18T11:50:24.597Z,41.38
2017-05-18T11:52:51.941Z,42.14
2017-05-18T11:55:19.262Z,59.54
2017-05-18T11:57:46.576Z,65.32
2017-05-18T12:00:13.914Z,68.98
2017-05-18T12:02:41.313Z,72.12
2017-05-18T12:05:08.654Z,65.32
2017-05-18T12:07:36.007Z,111.12
2017-05-18T12:10:03.341Z,85.90
2017-05-18T12:12:30.661Z,154.62
2017-05-18T12:14:58.021Z,80.62
2017-05-18T12:17:25.389Z,63.44
2017-05-18T12:19:52.718Z,57.66
2017-05-18T12:22:20.077Z,72.92
2017-05-18T12:24:47.370Z,79.90
2017-05-18T12:27:14.770Z,100.42
2017-05-18T12:29:42.189Z,65.28
2017-05-18T12:32:09.554Z,63.04
2017-05-18T12:34:36.911Z,92.40
2017-05-18T12:37:04.342Z,58.20
2017-05-18T12:39:31.713Z,71.58
2017-05-18T12:41:59.119Z,48.02
2017-05-18T12:44:26.494Z,58.44
2017-05-18T12:46:53.873Z,43.26
2017-05-18T12:49:21.202Z,38.02
2017-05-18T12:51:48.596Z,41.62
2017-05-18T12:54:15.924Z,40.42
2017-05-18T12:56:43.281Z,40.38
2017-05-18T12:59:10.669Z,35.88
2017-05-18T13:01:41.978Z,37.06
2017-05-18T13:04:09.374Z,29.56
2017-05-18T13:06:36.777Z,38.86
2017-05-18T13:09:04.170Z,32.64
2017-05-18T13:11:31.514Z,36.42
2017-05-18T13:13:58.892Z,34.06
2017-05-18T13:16:26.249Z,26.64
2017-05-18T13:18:53.606Z,28.40
2017-05-18T13:21:20.977Z,33.96
2017-05-18T13:23:48.311Z,42.96
2017-05-18T13:26:15.642Z,55.46
2017-05-18T13:28:43.025Z,50.66
2017-05-18T13:31:10.301Z,31.28
2017-05-18T13:33:37.678Z,33.88
2017-05-18T13:36:05.030Z,42.64
2017-05-18T13:38:33.342Z,39.38
2017-05-18T13:41:00.897Z,47.68
2017-05-18T13:43:28.271Z,35.86
2017-05-18T13:45:55.605Z,47.94
2017-05-18T13:48:22.964Z,40.40
2017-05-18T13:50:50.301Z,29.00
2017-05-18T13:53:18.549Z,29.26
2017-05-18T13:55:45.908Z,28.18
2017-05-18T13:58:13.280Z,29.18
2017-05-18T14:00:40.754Z,29.82
2017-05-18T14:03:08.157Z,31.86
2017-05-18T14:05:35.513Z,25.24
2017-05-18T14:08:02.855Z,23.12
2017-05-18T14:10:30.205Z,14.34
2017-05-18T14:12:57.526Z,19.32
2017-05-18T14:15:24.853Z,17.76
2017-05-18T14:17:52.274Z,15.14
2017-05-18T14:20:20.570Z,20.18
2017-05-18T14:22:47.969Z,21.84
2017-05-18T14:25:16.405Z,25.24
2017-05-18T14:27:43.870Z,25.82
2017-05-18T14:30:11.249Z,25.80
2017-05-18T14:32:39.113Z,27.02
2017-05-18T14:35:06.446Z,26.54
2017-05-18T14:37:33.870Z,28.00
2017-05-18T14:40:02.990Z,29.14
2017-05-18T14:42:30.511Z,25.36
2017-05-18T14:44:58.111Z,25.00
2017-05-18T14:47:25.377Z,26.34
2017-05-18T14:49:52.780Z,25.16
2017-05-18T14:52:20.121Z,23.20
2017-05-18T14:54:47.661Z,24.20
2017-05-18T14:57:15.314Z,26.62
2017-05-18T14:59:42.734Z,27.58
2017-05-18T15:02:10.258Z,29.40
2017-05-18T15:04:37.769Z,25.64
2017-05-18T15:07:05.138Z,27.82
2017-05-18T15:09:32.724Z,30.40
2017-05-18T15:12:00.021Z,28.66
2017-05-18T15:14:27.347Z,27.54
2017-05-18T15:16:54.786Z,29.88
2017-05-18T15:19:22.162Z,30.42
2017-05-18T15:21:49.625Z,30.18
2017-05-18T15:24:16.995Z,27.38
2017-05-18T15:26:49.558Z,26.24
2017-05-18T15:29:17.207Z,22.46
2017-05-18T15:31:45.321Z,26.90
2017-05-18T15:34:12.914Z,23.50
2017-05-18T15:36:40.314Z,24.62
2017-05-18T15:39:11.377Z,24.16
2017-05-18T15:41:38.749Z,21.90
2017-05-18T15:44:06.086Z,24.30
2017-05-18T15:46:33.653Z,26.60
2017-05-18T15:49:01.118Z,27.68
2017-05-18T15:51:28.465Z,28.80
2017-05-18T15:53:58.761Z,29.26
2017-05-18T15:56:26.205Z,26.12
2017-05-18T15:58:53.574Z,28.32
2017-05-18T16:01:20.932Z,28.02
2017-05-18T16:03:48.274Z,26.16
2017-05-18T16:06:15.658Z,27.96
2017-05-18T16:08:42.997Z,26.78
2017-05-18T16:11:13.106Z,29.22
2017-05-18T16:13:40.438Z,31.28
2017-05-18T16:16:07.884Z,29.74
2017-05-18T16:18:35.622Z,28.52
2017-05-18T16:21:03.193Z,28.60
2017-05-18T16:23:30.541Z,26.48
2017-05-18T16:25:57.890Z,25.90
2017-05-18T16:28:27.334Z,25.38
2017-05-18T16:30:54.650Z,25.64
2017-05-18T16:33:22.354Z,25.98
2017-05-18T16:35:49.786Z,25.14
2017-05-18T16:38:17.204Z,25.52
2017-05-18T16:40:49.709Z,25.02
2017-05-18T16:43:17.095Z,24.70
2017-05-18T16:45:44.665Z,24.72
2017-05-18T16:48:11.991Z,26.66
2017-05-18T16:50:39.354Z,25.70
2017-05-18T16:53:06.735Z,29.58
2017-05-18T16:55:34.234Z,25.78
2017-05-18T16:58:01.640Z,25.18
2017-05-18T17:00:29.005Z,27.74
2017-05-18T17:02:56.342Z,26.06
2017-05-18T17:05:23.721Z,28.98
2017-05-18T17:07:51.073Z,27.70
2017-05-18T17:10:18.394Z,26.44
2017-05-18T17:12:46.060Z,30.88
2017-05-18T17:15:13.397Z,28.78
2017-05-18T17:17:40.766Z,31.66
2017-05-18T17:20:08.157Z,31.84
2017-05-18T17:22:35.534Z,32.40
2017-05-18T17:25:03.076Z,25.48
2017-05-18T17:27:30.514Z,26.80
2017-05-18T17:29:57.763Z,26.00
2017-05-18T17:32:25.106Z,27.30
2017-05-18T17:34:52.510Z,27.60
2017-05-18T17:37:19.866Z,28.22
2017-05-18T17:39:47.304Z,27.88
2017-05-18T17:42:14.773Z,26.14
2017-05-18T17:44:42.198Z,26.62
2017-05-18T17:47:09.554Z,29.80
2017-05-18T17:49:36.918Z,29.06
2017-05-18T17:52:05.043Z,27.20
2017-05-18T17:54:32.448Z,29.58
2017-05-18T17:56:59.794Z,30.66
2017-05-18T17:59:27.248Z,27.04
2017-05-18T18:01:54.721Z,29.50
2017-05-18T18:04:22.119Z,30.22
2017-05-18T18:06:49.468Z,26.46
2017-05-18T18:09:16.893Z,27.20
2017-05-18T18:11:44.452Z,30.70
2017-05-18T18:14:11.923Z,29.50
2017-05-18T18:16:39.310Z,29.92
2017-05-18T18:19:06.641Z,31.10
2017-05-18T18:21:35.137Z,33.94
2017-05-18T18:24:02.465Z,33.06
2017-05-18T18:26:29.877Z,34.70
2017-05-18T18:29:02.446Z,32.40
2017-05-18T18:31:29.863Z,37.28
2017-05-18T18:33:57.194Z,41.72
2017-05-18T18:36:24.517Z,33.24
2017-05-18T18:38:51.877Z,36.24
2017-05-18T18:41:19.223Z,36.86
2017-05-18T18:43:46.580Z,35.78
2017-05-18T18:46:16.865Z,42.68
2017-05-18T18:48:44.241Z,43.42
2017-05-18T18:51:11.578Z,36.46
2017-05-18T18:53:38.909Z,37.90
2017-05-18T18:56:06.238Z,40.56
2017-05-18T18:58:33.705Z,43.60
2017-05-18T19:01:01.110Z,40.40
2017-05-18T19:03:28.498Z,35.64
2017-05-18T19:05:55.918Z,35.18
2017-05-18T19:08:23.286Z,36.84
2017-05-18T19:10:50.534Z,40.54
2017-05-18T19:13:17.954Z,37.68
2017-05-18T19:15:45.259Z,35.96
2017-05-18T19:18:12.667Z,37.24
2017-05-18T19:20:40.858Z,36.86
2017-05-18T19:23:08.371Z,44.98
2017-05-18T19:25:35.715Z,38.90
2017-05-18T19:28:03.535Z,43.76
2017-05-18T19:30:30.782Z,41.38
2017-05-18T19:32:58.137Z,39.68
2017-05-18T19:35:25.605Z,42.20
2017-05-18T19:37:54.754Z,43.32
2017-05-18T19:40:22.230Z,46.56
2017-05-18T19:42:49.702Z,44.46
2017-05-18T19:45:17.053Z,38.24
2017-05-18T19:47:44.282Z,44.76
2017-05-18T19:50:11.728Z,45.76
2017-05-18T19:52:39.165Z,45.66
2017-05-18T19:55:06.533Z,47.12
2017-05-18T19:57:33.885Z,43.60
2017-05-18T20:00:01.287Z,48.52
2017-05-18T20:02:28.675Z,44.86
2017-05-18T20:04:55.998Z,48.10
2017-05-18T20:07:23.322Z,46.84
2017-05-18T20:09:50.753Z,46.24
2017-05-18T20:12:18.118Z,46.92
2017-05-18T20:14:45.523Z,50.72
2017-05-18T20:17:12.962Z,51.12
2017-05-18T20:19:40.607Z,51.78
2017-05-18T20:22:08.413Z,50.98
2017-05-18T20:24:35.761Z,48.26
2017-05-18T20:27:03.138Z,50.10
2017-05-18T20:29:30.473Z,50.44
2017-05-18T20:31:57.834Z,55.72
2017-05-18T20:34:25.255Z,54.74
2017-05-18T20:36:52.629Z,55.78
2017-05-18T20:39:19.970Z,51.24
2017-05-18T20:41:47.309Z,52.32
2017-05-18T20:44:14.690Z,51.04
2017-05-18T20:46:42.058Z,52.76
2017-05-18T20:49:09.409Z,45.16
2017-05-18T20:51:36.791Z,45.76
2017-05-18T20:54:04.143Z,55.84
2017-05-18T20:56:35.845Z,52.70
2017-05-18T20:59:03.282Z,51.16
2017-05-18T21:01:30.642Z,46.50
2017-05-18T21:03:58.859Z,55.26
2017-05-18T21:06:26.245Z,56.46
2017-05-18T21:08:53.577Z,54.64
2017-05-18T21:11:20.902Z,62.88
2017-05-18T21:13:48.305Z,51.20
2017-05-18T21:16:15.774Z,52.30
2017-05-18T21:18:43.113Z,66.12
2017-05-18T21:21:10.482Z,56.46
2017-05-18T21:23:37.832Z,67.74
2017-05-18T21:26:05.161Z,62.38
2017-05-18T21:28:32.502Z,60.24
2017-05-18T21:30:59.854Z,57.92
2017-05-18T21:33:27.169Z,70.00
2017-05-18T21:35:54.509Z,64.80
2017-05-18T21:38:21.816Z,66.54
2017-05-18T21:40:49.170Z,69.72
2017-05-18T21:43:16.525Z,73.04
2017-05-18T21:45:43.879Z,65.90
2017-05-18T21:48:11.213Z,66.28
2017-05-18T21:50:38.657Z,58.50
2017-05-18T21:53:05.986Z,57.94
2017-05-18T21:55:33.330Z,66.48
2017-05-18T21:58:00.677Z,64.04
2017-05-18T22:00:28.094Z,59.40
2017-05-18T22:02:55.418Z,62.88
2017-05-18T22:05:22.785Z,65.52
2017-05-18T22:07:50.149Z,62.12
2017-05-18T22:10:17.490Z,65.84
2017-05-18T22:12:44.817Z,64.68
2017-05-18T22:15:12.190Z,72.36
2017-05-18T22:17:39.406Z,69.62
2017-05-18T22:20:06.744Z,66.84
2017-05-18T22:22:34.046Z,51.04
2017-05-18T22:25:01.403Z,56.54
2017-05-18T22:27:28.778Z,54.78
2017-05-18T22:29:56.074Z,65.06
2017-05-18T22:32:26.721Z,64.32
2017-05-18T22:34:54.110Z,79.78
2017-05-18T22:37:21.441Z,64.08
2017-05-18T22:39:48.762Z,60.54
2017-05-18T22:42:16.086Z,63.40
2017-05-18T22:44:43.431Z,68.82
2017-05-18T22:47:10.937Z,63.80
2017-05-18T22:49:38.316Z,61.12
2017-05-18T22:52:05.658Z,69.60
2017-05-18T22:54:33.035Z,64.18
2017-05-18T22:57:00.381Z,54.88
2017-05-18T22:59:27.709Z,60.70
2017-05-18T23:01:55.121Z,59.18
2017-05-18T23:04:22.463Z,61.86
2017-05-18T23:06:49.866Z,60.20
2017-05-18T23:09:17.225Z,66.12
2017-05-18T23:11:44.440Z,60.00
2017-05-18T23:14:11.802Z,60.46
2017-05-18T23:16:39.196Z,53.46
2017-05-18T23:19:06.570Z,60.52
2017-05-18T23:21:33.921Z,50.24
2017-05-18T23:24:01.251Z,46.40
2017-05-18T23:26:28.557Z,58.30
2017-05-18T23:28:55.886Z,57.82
2017-05-18T23:31:23.254Z,48.82
2017-05-18T23:33:50.593Z,43.64
2017-05-18T23:36:17.953Z,42.26
2017-05-18T23:38:45.313Z,42.12
2017-05-18T23:41:12.685Z,44.08
2017-05-18T23:43:40.005Z,46.68
2017-05-18T23:46:07.366Z,49.80
2017-05-18T23:48:34.651Z,36.42
2017-05-18T23:51:02.083Z,37.40
2017-05-18T23:53:29.426Z,48.72
2017-05-18T23:55:56.640Z,50.36
2017-05-18T23:58:23.962Z,45.92
